LDZALDZD

Guest
Details From LDZA - Zagreb
To LDZD - Zadar
Flight Number -
Tags Generated
Created
Modified
Stats Distance 104 nm / 192 km
Max Altitude 0 ft / 0 m
Waypoints 2
Social Downloads 2
Likes 0
Share VATSIM

Download

Looking for another format? Having issues loading an existing format? Contact us
Advertisement - Login to hide

Notes

Generated

Route

LDZA LDZD

ID Type Via Altitude Latitude Longitude Leg Dist Tot Dist Heading (true) Name
O LDZA APT - 0 ft / 0 m 45.73188˚ 16.05197˚ - 0 nm - -
O LDZD APT - 0 ft / 0 m 44.07939˚ 15.34116˚ 103 nm 103 nm 197° / 197° -

Altitude Profile

Advertisement - Login to hide

LDZA

Details ICAO LDZA (ZAG)
Name Zagreb
Region Croatia
Timezone Europe/Zagreb (UTC+1.0)
Stats Elevation 353 ft / 108 m (AMSL)
Location 45.741890° 16.067200°
Runways 1
Magnetic Variation 3.959° E

METAR

LDZA 162230Z VRB01KT 0500 R05/1000D R23/0900D FG VV002 02/02 Q1014 NOSIG

Decode

TAF

TAF AMD LDZA 162033Z 1620/1718 VRB02KT 1200 BR OVC004 TX05/1712Z TNM02/1717Z TEMPO 1620/1702 0600 FG PROB30 TEMPO 1623/1702 0200 FZFG VV002 BECMG 1702/1704 05006KT 6000 NSW BKN020 OVC040 PROB30 TEMPO 1702/1706 0800 -SN BKN005 BKN025

Decode

Departure Runways

ID Width Length Bearing (true) Bearing (mag) Surface Threshold Offset Overrun Length
05 148 ft / 45 m 10,659 ft / 3,249 m 46.69° 42.73° Asphalt 0 ft / 0 m 195 ft / 59 m
23 148 ft / 45 m 10,659 ft / 3,249 m 226.71° 222.75° Asphalt 0 ft / 0 m 195 ft / 59 m

LDZD

Details ICAO LDZD (ZAD)
Name ZADAR
Region Croatia
Timezone Europe/Zagreb (UTC+1.0)
Stats Elevation 289 ft / 88 m (AMSL)
Location 44.097225° 15.347978°
Runways 2
Magnetic Variation 3.702° E

METAR

LDZD 162230Z 06008KT 020V110 9999 FEW020 BKN040 07/00 Q1009

Decode

TAF

TAF LDZD 161725Z 1618/1718 06008KT 9999 SCT040 TX09/1712Z TN02/1717Z PROB30 TEMPO 1620/1700 SHRA FEW030TCU BKN040 PROB40 TEMPO 1623/1706 06015G25KT BECMG 1714/1716 35007KT

Decode

Destination Runways

ID Width Length Bearing (true) Bearing (mag) Surface Threshold Offset Overrun Length
04 147 ft / 45 m 6,519 ft / 1,987 m 41.52° 37.82° Asphalt 0 ft / 0 m 0 ft / 0 m
14 147 ft / 45 m 8,159 ft / 2,487 m 135.79° 132.09° Asphalt 0 ft / 0 m 0 ft / 0 m
22 147 ft / 45 m 6,519 ft / 1,987 m 221.53° 217.83° Asphalt 0 ft / 0 m 0 ft / 0 m
32 147 ft / 45 m 8,159 ft / 2,487 m 315.81° 312.11° Asphalt 0 ft / 0 m 0 ft / 0 m

Approach Navaids

Runway Type Ident Frequency Range Bearing (true) Bearing (mag) Slope Elevation
14 Localiser IZD 110.10 MHz 25 nm / 46 km 135.69° 131.99° - 246 ft / 75 m (AMSL)
14 Glidescope IZD 110.10 MHz 25 nm / 46 km 135.69° 131.99° 3.00° 236 ft / 72 m (AMSL)

Popular Alternatives